Time;durP1;ratioP1;P1;durP2;ratioP2;P2;SDS_P1;SDS_P2;PMS_P1;PMS_P2;Temp;Humidity;BMP_temperature;BMP_pressure;BME280_temperature;BME280_humidity;BME280_pressure;Samples;Min_cycle;Max_cycle;Signal;HPM_P1;HPM_P2
2021/04/24 00:00:01;;;;;;;23.38;8.95;;;;;;;7.71;58.94;102893.88;5061233;28;20052;-74
2021/04/24 00:02:27;;;;;;;28.10;9.85;;;;;;;7.77;58.83;102903.19;5062668;28;20389;-73
2021/04/24 00:04:53;;;;;;;29.65;10.30;;;;;;;7.66;59.51;102901.09;5040414;28;20102;-73
2021/04/24 00:07:19;;;;;;;30.05;9.88;;;;;;;7.67;59.67;102897.59;5059634;28;20048;-72
2021/04/24 00:09:48;;;;;;;29.38;10.63;;;;;;;7.60;59.72;102898.78;5060313;28;20059;-73
2021/04/24 00:12:15;;;;;;;28.67;10.38;;;;;;;7.58;59.33;102893.63;5060799;28;20726;-72
2021/04/24 00:14:41;;;;;;;25.50;9.57;;;;;;;7.49;60.42;102891.50;5045271;28;20110;-73
2021/04/24 00:17:07;;;;;;;33.95;10.82;;;;;;;7.47;59.91;102895.97;5058545;28;20048;-73
2021/04/24 00:19:33;;;;;;;25.10;10.25;;;;;;;7.45;59.90;102890.81;5064643;28;20079;-73
2021/04/24 00:22:00;;;;;;;28.77;10.75;;;;;;;7.36;60.42;102885.19;5036373;28;20122;-73
2021/04/24 00:24:26;;;;;;;30.95;10.27;;;;;;;7.33;61.00;102891.38;5051425;28;20049;-75
2021/04/24 00:26:52;;;;;;;28.58;10.35;;;;;;;7.27;60.60;102891.69;5050894;28;20070;-72
2021/04/24 00:29:18;;;;;;;32.38;11.35;;;;;;;7.26;60.48;102890.84;5058544;28;20052;-74
2021/04/24 00:31:44;;;;;;;31.10;10.95;;;;;;;7.20;61.43;102885.09;5045269;28;20752;-72
2021/04/24 00:34:10;;;;;;;32.10;10.38;;;;;;;7.19;61.30;102886.81;5051113;28;20052;-72
2021/04/24 00:36:36;;;;;;;33.50;10.50;;;;;;;7.14;61.34;102883.63;5064095;28;20052;-72
2021/04/24 00:39:04;;;;;;;24.55;10.38;;;;;;;7.14;61.84;102883.63;5053195;28;20080;-71
2021/04/24 00:41:30;;;;;;;29.50;10.27;;;;;;;7.11;62.43;102879.41;5048843;28;20655;-71
2021/04/24 00:43:56;;;;;;;33.50;11.77;;;;;;;7.08;61.43;102876.91;5061098;28;20819;-74
2021/04/24 00:46:22;;;;;;;29.33;9.90;;;;;;;7.05;61.89;102869.22;5057278;28;20052;-74
2021/04/24 00:48:48;;;;;;;30.98;10.32;;;;;;;7.06;61.83;102876.16;5061454;28;20098;-74
2021/04/24 00:51:15;;;;;;;27.75;10.07;;;;;;;7.05;61.87;102873.59;5052569;28;20055;-72
2021/04/24 00:53:41;;;;;;;28.23;10.75;;;;;;;6.99;61.70;102863.47;5062114;28;20056;-72
2021/04/24 00:56:07;;;;;;;31.30;9.77;;;;;;;6.95;61.43;102861.91;5055109;28;20056;-73
2021/04/24 00:58:34;;;;;;;29.08;10.95;;;;;;;6.95;61.96;102869.75;5062458;28;20048;-72
2021/04/24 01:01:02;;;;;;;28.80;11.93;;;;;;;6.89;61.84;102863.06;5045014;28;20056;-71
2021/04/24 01:03:28;;;;;;;36.03;12.50;;;;;;;6.88;61.63;102874.38;5036965;28;20053;-73
2021/04/24 01:05:54;;;;;;;27.33;10.95;;;;;;;6.84;61.84;102871.09;5041127;28;20088;-72
2021/04/24 01:08:21;;;;;;;26.08;10.25;;;;;;;6.77;61.86;102874.06;5037240;28;20839;-74
2021/04/24 01:10:47;;;;;;;32.72;10.85;;;;;;;6.72;62.42;102875.13;5060559;28;20103;-71
2021/04/24 01:13:14;;;;;;;29.25;10.23;;;;;;;6.72;62.53;102871.66;5056135;28;20554;-71
2021/04/24 01:15:41;;;;;;;27.73;10.73;;;;;;;6.71;62.38;102869.97;5063378;28;20506;-71
2021/04/24 01:18:08;;;;;;;25.40;10.07;;;;;;;6.72;62.13;102862.09;5043609;28;20101;-72
2021/04/24 01:20:36;;;;;;;29.50;10.82;;;;;;;6.70;62.94;102856.09;5054143;28;20052;-72
2021/04/24 01:23:03;;;;;;;34.35;11.18;;;;;;;6.70;62.24;102855.22;5061734;28;20663;-72
2021/04/24 01:25:30;;;;;;;35.40;11.35;;;;;;;6.69;63.21;102862.22;5064337;28;20043;-73
2021/04/24 01:27:58;;;;;;;28.45;10.68;;;;;;;6.68;62.90;102864.88;5060089;28;20157;-73
2021/04/24 01:30:33;;;;;;;32.80;10.57;;;;;;;6.69;63.04;102866.59;5056020;28;20048;-73
2021/04/24 01:33:00;;;;;;;29.92;10.07;;;;;;;6.70;61.86;102869.13;5041303;28;20488;-73
2021/04/24 01:35:29;;;;;;;32.08;10.45;;;;;;;6.68;63.04;102857.94;5061956;28;20079;-72
2021/04/24 01:37:56;;;;;;;36.00;10.52;;;;;;;6.65;62.82;102858.06;5060133;28;20586;-72
2021/04/24 01:40:24;;;;;;;26.35;10.85;;;;;;;6.59;63.04;102847.09;5061471;28;20377;-72
2021/04/24 01:42:51;;;;;;;35.55;11.48;;;;;;;6.60;62.49;102849.59;5055820;28;20060;-72
2021/04/24 01:45:18;;;;;;;37.78;12.10;;;;;;;6.58;63.34;102843.59;5056542;28;20083;-73
2021/04/24 01:47:46;;;;;;;33.03;11.97;;;;;;;6.59;63.36;102863.56;5050353;28;20057;-73
2021/04/24 01:50:19;;;;;;;26.65;9.10;;;;;;;6.56;63.02;102857.63;5061266;28;20862;-71
2021/04/24 01:52:47;;;;;;;26.77;9.15;;;;;;;6.47;63.76;102845.88;5054409;28;20137;-71
2021/04/24 01:55:26;;;;;;;32.47;10.80;;;;;;;6.49;63.10;102854.47;5073160;28;20052;-72
2021/04/24 01:57:53;;;;;;;36.58;10.50;;;;;;;6.42;64.24;102845.22;5059489;28;20061;-71
2021/04/24 02:00:33;;;;;;;35.45;10.40;;;;;;;6.44;63.72;102848.63;5033407;28;20056;-72
2021/04/24 02:03:01;;;;;;;29.45;10.13;;;;;;;6.39;63.68;102847.97;5058770;28;20733;-72
2021/04/24 02:05:27;;;;;;;30.27;10.80;;;;;;;6.39;64.12;102856.66;5055607;28;20060;-73
2021/04/24 02:08:05;;;;;;;30.77;10.10;;;;;;;6.41;63.91;102852.22;5058099;28;20400;-72
2021/04/24 02:10:31;;;;;;;29.52;9.65;;;;;;;6.38;64.28;102852.34;5055436;28;20091;-71
2021/04/24 02:13:00;;;;;;;30.73;10.00;;;;;;;6.39;64.04;102850.56;5057874;28;20056;-72
2021/04/24 02:15:27;;;;;;;29.17;10.95;;;;;;;6.38;64.54;102852.34;5048533;28;20052;-72
2021/04/24 02:17:53;;;;;;;32.33;10.18;;;;;;;6.37;64.16;102853.28;5060968;28;20059;-72
2021/04/24 02:20:20;;;;;;;24.02;9.18;;;;;;;6.32;64.80;102856.06;5041621;28;20064;-71
2021/04/24 02:22:46;;;;;;;30.83;10.25;;;;;;;6.29;64.45;102847.53;5053164;28;20044;-72
2021/04/24 02:25:15;;;;;;;32.20;11.10;;;;;;;6.28;64.19;102857.13;5061036;28;20148;-72
2021/04/24 02:27:42;;;;;;;;;;;;;;;6.26;64.76;102852.91;5052580;28;20052;-72
2021/04/24 02:30:10;;;;;;;32.38;9.38;;;;;;;6.25;64.75;102853.81;5058481;28;19938;-71
2021/04/24 02:32:38;;;;;;;31.15;10.70;;;;;;;6.24;65.22;102841.69;5059454;28;20106;-72
2021/04/24 02:35:07;;;;;;;34.45;10.95;;;;;;;6.23;64.37;102848.66;5046260;28;20719;-71
2021/04/24 02:37:34;;;;;;;25.50;9.75;;;;;;;6.25;65.28;102849.47;5063892;28;20151;-71
2021/04/24 02:40:04;;;;;;;29.33;9.60;;;;;;;6.25;65.25;102857.28;5062823;28;20685;-72
2021/04/24 02:42:31;;;;;;;30.00;10.23;;;;;;;6.17;64.96;102842.88;5039332;28;20049;-72
2021/04/24 02:44:58;;;;;;;24.50;9.73;;;;;;;6.24;65.18;102846.91;5052763;28;20056;-71
2021/04/24 02:47:25;;;;;;;31.88;9.93;;;;;;;6.18;64.81;102842.81;5044364;28;20114;-73
2021/04/24 02:49:51;;;;;;;33.83;10.88;;;;;;;6.19;65.06;102857.53;5061870;28;20048;-72
2021/04/24 02:52:17;;;;;;;30.35;10.25;;;;;;;6.16;64.78;102852.47;5036663;28;20059;-72
2021/04/24 02:54:43;;;;;;;37.33;10.95;;;;;;;6.16;65.20;102854.22;5052407;28;20106;-72
2021/04/24 02:57:10;;;;;;;23.50;10.88;;;;;;;6.09;65.45;102849.25;5050361;28;20056;-71
2021/04/24 02:59:36;;;;;;;31.88;11.23;;;;;;;6.09;65.87;102851.03;5060217;28;20056;-72
2021/04/24 03:02:02;;;;;;;26.27;10.35;;;;;;;6.03;65.91;102852.13;5034086;28;20067;-72
2021/04/24 03:04:29;;;;;;;30.27;11.00;;;;;;;6.03;65.69;102856.50;5046674;28;20056;-71
2021/04/24 03:06:55;;;;;;;26.10;10.07;;;;;;;5.99;66.28;102860.16;5059954;28;20432;-71
2021/04/24 03:09:21;;;;;;;26.25;9.88;;;;;;;5.99;65.84;102858.41;5046940;28;20053;-72
2021/04/24 03:11:48;;;;;;;27.40;10.60;;;;;;;5.95;66.41;102846.44;5061060;28;20061;-71
2021/04/24 03:14:14;;;;;;;38.15;11.60;;;;;;;5.96;66.35;102855.06;5056050;28;20070;-72
2021/04/24 03:16:40;;;;;;;28.17;11.30;;;;;;;5.92;66.38;102855.19;5065690;28;20066;-71
2021/04/24 03:19:08;;;;;;;31.13;10.05;;;;;;;5.88;66.00;102852.78;5059680;28;20473;-71
2021/04/24 03:21:34;;;;;;;34.65;11.15;;;;;;;5.82;66.15;102848.69;5046182;28;20048;-72
2021/04/24 03:24:01;;;;;;;31.50;9.80;;;;;;;5.85;66.81;102851.16;5060411;28;20526;-71
2021/04/24 03:26:26;;;;;;;33.35;10.43;;;;;;;5.80;66.56;102847.91;5055117;28;20115;-71
2021/04/24 03:28:53;;;;;;;32.08;10.88;;;;;;;5.78;66.32;102848.88;5062580;28;20048;-72
2021/04/24 03:31:19;;;;;;;30.45;10.48;;;;;;;5.74;66.19;102846.41;5057306;28;21002;-71
2021/04/24 03:33:45;;;;;;;30.95;11.05;;;;;;;5.73;66.56;102852.53;5062602;28;20468;-71
2021/04/24 03:36:13;;;;;;;26.83;10.10;;;;;;;5.69;66.59;102848.34;5058292;28;20056;-71
2021/04/24 03:38:39;;;;;;;28.60;9.77;;;;;;;5.63;66.35;102840.81;5063668;28;20044;-72
2021/04/24 03:41:07;;;;;;;24.30;9.70;;;;;;;5.67;66.70;102847.56;5064807;28;20795;-71
2021/04/24 03:43:34;;;;;;;25.45;10.07;;;;;;;5.70;66.85;102844.00;5060868;28;20136;-71
2021/04/24 03:46:00;;;;;;;35.08;11.27;;;;;;;5.68;66.63;102849.25;5066065;28;20075;-71
2021/04/24 03:48:26;;;;;;;34.03;11.68;;;;;;;5.66;66.63;102842.44;5051525;28;20479;-72
2021/04/24 03:50:53;;;;;;;30.58;10.73;;;;;;;5.64;65.62;102850.31;5064872;28;20466;-71
2021/04/24 03:53:19;;;;;;;26.35;10.60;;;;;;;5.60;66.43;102855.72;5058267;28;20048;-71
2021/04/24 03:55:46;;;;;;;31.88;10.02;;;;;;;5.56;66.69;102854.97;5043883;28;20062;-71
2021/04/24 03:58:12;;;;;;;31.88;9.80;;;;;;;5.58;66.04;102852.31;5064566;28;20048;-72
2021/04/24 04:00:38;;;;;;;29.45;9.88;;;;;;;5.53;66.16;102850.75;5054514;28;20052;-70
2021/04/24 04:03:07;;;;;;;26.08;8.98;;;;;;;5.50;65.97;102848.28;5064705;28;20049;-71
2021/04/24 04:05:39;;;;;;;31.52;10.73;;;;;;;5.48;66.15;102852.69;5056244;28;20095;-72
2021/04/24 04:08:07;;;;;;;33.13;11.20;;;;;;;5.47;66.58;102857.97;5063785;28;20886;-72
2021/04/24 04:10:35;;;;;;;28.23;9.40;;;;;;;5.45;66.34;102854.56;5058878;28;20522;-71
2021/04/24 04:13:02;;;;;;;29.63;9.93;;;;;;;5.38;66.03;102853.16;5063099;28;20057;-71
2021/04/24 04:15:29;;;;;;;33.83;11.30;;;;;;;5.38;66.09;102853.16;5059097;28;20492;-72
2021/04/24 04:18:14;;;;;;;28.73;10.30;;;;;;;5.33;65.16;102861.13;5056495;28;20048;-71
2021/04/24 04:20:59;;;;;;;27.77;9.32;;;;;;;5.28;65.49;102868.28;5049454;28;20049;-71
2021/04/24 04:23:26;;;;;;;27.10;9.95;;;;;;;5.22;65.79;102863.34;5048911;28;20059;-71
2021/04/24 04:25:53;;;;;;;21.13;8.85;;;;;;;5.16;66.00;102861.81;5043511;28;20052;-72
2021/04/24 04:28:20;;;;;;;23.95;8.75;;;;;;;5.09;66.10;102869.00;5054862;28;20106;-72
2021/04/24 04:30:48;;;;;;;23.55;8.75;;;;;;;5.04;66.40;102867.53;5059177;28;20610;-71
2021/04/24 04:33:14;;;;;;;27.60;8.63;;;;;;;5.02;66.58;102871.91;5061831;28;20048;-71
2021/04/24 04:35:42;;;;;;;27.27;9.43;;;;;;;5.02;66.70;102871.91;5061179;28;20059;-71
2021/04/24 04:38:08;;;;;;;24.60;8.73;;;;;;;4.95;66.49;102861.75;5062451;28;20099;-71
2021/04/24 04:40:35;;;;;;;30.80;10.07;;;;;;;4.98;66.54;102873.81;5055663;28;20289;-71
2021/04/24 04:43:01;;;;;;;28.58;9.45;;;;;;;4.98;66.25;102873.81;5060215;28;20888;-72
2021/04/24 04:45:27;;;;;;;26.20;9.88;;;;;;;5.00;66.56;102877.19;5038939;28;20099;-72
2021/04/24 04:47:53;;;;;;;30.83;10.07;;;;;;;4.95;66.78;102869.56;5063348;28;20624;-71
2021/04/24 04:50:23;;;;;;;26.15;9.35;;;;;;;5.02;66.72;102871.91;5060340;28;20384;-72
2021/04/24 04:52:49;;;;;;;25.08;8.77;;;;;;;5.06;66.54;102870.91;5062037;28;20079;-71
2021/04/24 04:55:16;;;;;;;26.80;9.60;;;;;;;5.09;66.80;102871.59;5044937;28;20110;-71
2021/04/24 04:57:42;;;;;;;21.65;9.02;;;;;;;5.10;66.74;102868.13;5053310;28;20060;-72
2021/04/24 05:00:11;;;;;;;29.48;10.07;;;;;;;5.13;66.92;102870.56;5059149;28;20094;-72
2021/04/24 05:02:38;;;;;;;32.78;10.00;;;;;;;5.19;67.04;102876.47;5056868;28;20056;-72
2021/04/24 05:05:06;;;;;;;28.13;10.70;;;;;;;5.25;66.60;102874.47;5062010;28;20048;-73
2021/04/24 05:07:32;;;;;;;26.80;8.68;;;;;;;5.33;67.28;102871.53;5058460;28;20052;-71
2021/04/24 05:10:19;;;;;;;29.25;10.35;;;;;;;5.39;67.09;102876.53;5059062;28;20052;-72
2021/04/24 05:12:46;;;;;;;30.27;9.52;;;;;;;5.39;68.27;102860.91;5056868;28;20072;-71
2021/04/24 05:15:13;;;;;;;29.95;10.85;;;;;;;5.46;67.76;102866.69;5056157;28;20052;-72
2021/04/24 05:17:39;;;;;;;29.10;10.65;;;;;;;5.52;68.33;102862.06;5061245;28;20160;-71
2021/04/24 05:20:06;;;;;;;32.38;10.32;;;;;;;5.56;68.03;102857.59;5059144;28;20122;-71
2021/04/24 05:22:33;;;;;;;21.70;8.40;;;;;;;5.64;68.22;102858.09;5059990;28;20456;-71
2021/04/24 05:25:00;;;;;;;21.65;8.75;;;;;;;5.68;68.27;102864.88;5059167;28;20083;-72
2021/04/24 05:27:26;;;;;;;23.10;9.27;;;;;;;5.73;69.20;102865.53;5058305;28;20057;-72
2021/04/24 05:29:53;;;;;;;28.15;9.60;;;;;;;5.81;68.96;102867.81;5063946;28;20063;-72
2021/04/24 05:32:19;;;;;;;27.67;9.80;;;;;;;5.85;68.99;102863.34;5053190;28;20130;-72
2021/04/24 05:34:48;;;;;;;25.65;9.00;;;;;;;5.88;68.71;102871.88;5062566;28;20818;-71
2021/04/24 05:37:15;;;;;;;25.55;9.10;;;;;;;5.91;69.42;102871.72;5055979;28;20062;-71
2021/04/24 05:39:42;;;;;;;29.63;8.80;;;;;;;5.96;68.77;102868.97;5039141;28;20115;-72
2021/04/24 05:42:10;;;;;;;26.05;9.88;;;;;;;5.97;69.05;102870.66;5034847;28;20103;-71
2021/04/24 05:44:37;;;;;;;33.97;10.48;;;;;;;6.04;69.11;102886.88;5061503;28;20466;-71
2021/04/24 05:47:03;;;;;;;32.03;10.98;;;;;;;6.10;69.19;102881.41;5046320;28;20106;-71
2021/04/24 05:49:32;;;;;;;27.70;9.07;;;;;;;6.09;69.55;102858.84;5055207;28;20052;-72
2021/04/24 05:51:59;;;;;;;29.30;10.38;;;;;;;6.20;69.00;102869.66;5060973;28;20151;-72
2021/04/24 05:54:25;;;;;;;24.17;9.68;;;;;;;6.26;69.59;102878.97;5048258;28;20063;-71
2021/04/24 05:56:51;;;;;;;22.92;9.27;;;;;;;6.35;69.21;102875.97;5061954;28;20060;-72
2021/04/24 05:59:18;;;;;;;31.15;11.68;;;;;;;6.43;68.79;102871.25;5038074;28;20117;-72
2021/04/24 06:01:44;;;;;;;24.35;8.90;;;;;;;6.48;69.19;102869.25;5054746;28;20067;-72
2021/04/24 06:04:10;;;;;;;31.17;9.93;;;;;;;6.58;68.89;102869.69;5063089;28;20087;-72
2021/04/24 06:06:36;;;;;;;35.08;11.65;;;;;;;6.66;69.63;102872.78;5050934;28;20044;-72
2021/04/24 06:09:03;;;;;;;28.08;10.32;;;;;;;6.71;69.75;102880.41;5054556;28;20133;-72
2021/04/24 06:11:29;;;;;;;28.40;9.57;;;;;;;6.78;69.72;102878.34;5036713;28;20056;-72
2021/04/24 06:13:55;;;;;;;25.35;9.35;;;;;;;6.81;69.64;102888.66;5059912;28;20146;-72
2021/04/24 06:16:21;;;;;;;25.20;7.57;;;;;;;6.85;69.42;102891.03;5058072;28;20049;-72
2021/04/24 06:18:47;;;;;;;20.25;7.53;;;;;;;6.92;69.39;102883.78;5042554;28;20052;-73
2021/04/24 06:21:13;;;;;;;25.67;7.65;;;;;;;6.98;69.02;102890.47;5041382;28;20052;-72
2021/04/24 06:23:39;;;;;;;24.35;7.47;;;;;;;7.01;68.19;102890.31;5046073;28;20727;-72
2021/04/24 06:26:05;;;;;;;19.42;7.78;;;;;;;7.06;68.43;102894.41;5061532;28;20488;-71
2021/04/24 06:28:31;;;;;;;24.80;7.97;;;;;;;7.11;67.97;102883.75;5053470;28;20044;-72
2021/04/24 06:30:58;;;;;;;20.27;8.20;;;;;;;7.17;68.01;102887.84;5060670;28;20041;-72
2021/04/24 06:33:24;;;;;;;24.30;8.10;;;;;;;7.21;68.54;102899.81;5057323;28;20052;-71
2021/04/24 06:35:50;;;;;;;32.40;8.32;;;;;;;7.25;67.83;102897.00;5056278;28;20106;-72
2021/04/24 06:38:16;;;;;;;23.80;8.02;;;;;;;7.30;67.83;102894.16;5062032;28;20098;-72
2021/04/24 06:40:42;;;;;;;27.85;8.55;;;;;;;7.32;67.99;102890.53;5055060;28;20088;-71
2021/04/24 06:43:08;;;;;;;21.05;7.07;;;;;;;7.39;67.90;102887.63;5057134;28;20090;-71
2021/04/24 06:45:34;;;;;;;26.92;8.48;;;;;;;7.40;67.49;102887.56;5058980;28;20075;-71
2021/04/24 06:48:01;;;;;;;23.50;7.88;;;;;;;7.47;67.53;102886.34;5064527;28;20059;-71
2021/04/24 06:50:27;;;;;;;21.65;7.65;;;;;;;7.53;67.49;102886.03;5058554;28;20060;-72
2021/04/24 06:52:54;;;;;;;27.40;10.80;;;;;;;7.58;67.27;102883.19;5054996;28;20056;-72
2021/04/24 06:55:20;;;;;;;27.05;9.98;;;;;;;7.67;67.13;102889.75;5066337;28;20061;-73
2021/04/24 06:57:47;;;;;;;39.10;10.48;;;;;;;7.70;67.04;102886.97;5055187;28;20060;-72
2021/04/24 07:00:15;;;;;;;26.02;9.25;;;;;;;7.77;66.24;102890.97;5064457;28;20110;-72
2021/04/24 07:02:44;;;;;;;27.40;7.63;;;;;;;7.84;66.00;102881.91;5045188;28;20396;-72
2021/04/24 07:05:12;;;;;;;26.27;8.85;;;;;;;7.86;66.00;102884.41;5056344;28;20768;-72
2021/04/24 07:07:40;;;;;;;23.90;8.80;;;;;;;7.92;65.10;102879.75;5040011;28;20056;-72
2021/04/24 07:10:08;;;;;;;27.38;8.57;;;;;;;7.97;65.66;102894.34;5058366;28;20115;-72
2021/04/24 07:12:35;;;;;;;23.95;8.35;;;;;;;8.00;64.97;102888.97;5058607;28;20085;-72
2021/04/24 07:15:03;;;;;;;16.98;7.10;;;;;;;8.04;64.39;102891.34;5059383;28;20481;-72
2021/04/24 07:17:29;;;;;;;19.95;6.88;;;;;;;8.03;63.93;102889.63;5061800;28;20119;-72
2021/04/24 07:19:56;;;;;;;17.23;7.00;;;;;;;8.11;63.82;102900.56;5052672;28;20060;-71
2021/04/24 07:22:22;;;;;;;13.77;6.90;;;;;;;8.09;63.44;102886.69;5055836;28;20492;-72
2021/04/24 07:24:48;;;;;;;20.80;6.90;;;;;;;8.12;62.76;102886.53;5055900;28;20123;-72
2021/04/24 07:27:14;;;;;;;20.90;7.85;;;;;;;8.14;62.21;102890.88;5057818;28;20076;-73
2021/04/24 07:29:41;;;;;;;20.20;6.90;;;;;;;8.17;61.86;102888.91;5061641;28;20080;-72
2021/04/24 07:32:07;;;;;;;19.23;7.10;;;;;;;8.26;62.74;102891.06;5052018;28;20491;-71
2021/04/24 07:34:34;;;;;;;19.77;7.22;;;;;;;8.30;62.56;102882.13;5061664;28;20044;-71
2021/04/24 07:37:00;;;;;;;24.23;7.50;;;;;;;8.32;62.59;102880.25;5057890;28;20110;-71
2021/04/24 07:39:27;;;;;;;20.73;7.43;;;;;;;8.38;62.13;102892.19;5062321;28;20386;-72
2021/04/24 07:41:53;;;;;;;21.15;7.65;;;;;;;8.42;61.40;102885.88;5050154;28;20467;-71
2021/04/24 07:44:19;;;;;;;25.65;7.15;;;;;;;8.51;61.02;102884.56;5054843;28;20422;-71
2021/04/24 07:46:46;;;;;;;12.43;4.90;;;;;;;8.55;59.13;102880.03;5029500;28;20096;-72
2021/04/24 07:49:12;;;;;;;13.30;5.05;;;;;;;8.61;58.26;102877.91;5055422;28;20047;-73
2021/04/24 07:51:38;;;;;;;16.25;5.88;;;;;;;8.65;58.92;102879.41;5068218;28;20110;-73
2021/04/24 07:54:04;;;;;;;17.15;5.15;;;;;;;8.74;58.93;102880.69;5057236;28;20048;-72
2021/04/24 07:56:30;;;;;;;14.48;5.65;;;;;;;8.81;58.16;102871.56;5063568;28;20427;-72
2021/04/24 07:58:56;;;;;;;14.98;4.82;;;;;;;8.86;57.02;102879.16;5058582;28;20048;-71
2021/04/24 08:01:22;;;;;;;18.88;5.95;;;;;;;8.94;57.65;102884.84;5052241;28;20048;-71
2021/04/24 08:03:48;;;;;;;15.45;6.25;;;;;;;9.03;58.02;102867.75;5055223;28;20080;-71
2021/04/24 08:06:15;;;;;;;22.88;6.65;;;;;;;9.14;57.16;102862.78;5051868;28;20088;-72
2021/04/24 08:08:41;;;;;;;17.00;5.97;;;;;;;9.33;56.57;102872.19;5052858;28;20507;-72
2021/04/24 08:11:08;;;;;;;11.82;4.95;;;;;;;9.54;55.57;102864.88;5054286;28;20636;-71
2021/04/24 08:13:34;;;;;;;18.00;5.65;;;;;;;9.79;55.23;102874.75;5059333;28;20080;-72
2021/04/24 08:16:00;;;;;;;20.05;7.10;;;;;;;9.98;54.12;102867.47;5057071;28;20105;-71
2021/04/24 08:18:26;;;;;;;17.70;6.60;;;;;;;10.31;54.11;102874.28;5049902;28;21718;-72
2021/04/24 08:20:52;;;;;;;15.00;5.93;;;;;;;10.72;53.21;102867.34;5064701;28;20056;-72
2021/04/24 08:23:18;;;;;;;12.77;5.25;;;;;;;10.99;52.07;102867.38;5054262;28;20076;-72
2021/04/24 08:25:44;;;;;;;13.60;4.70;;;;;;;11.21;50.29;102861.56;5062045;28;20060;-72
2021/04/24 08:28:10;;;;;;;13.65;4.80;;;;;;;11.58;49.43;102872.25;5050939;28;20049;-73
2021/04/24 08:30:36;;;;;;;17.48;6.32;;;;;;;11.90;50.27;102866.63;5058555;28;20415;-73
2021/04/24 08:33:04;;;;;;;11.57;4.95;;;;;;;11.86;49.16;102863.38;5061143;28;20044;-73
2021/04/24 08:35:31;;;;;;;17.35;5.03;;;;;;;12.03;49.21;102865.69;5056470;28;20052;-73
2021/04/24 08:37:57;;;;;;;14.00;5.90;;;;;;;12.21;48.75;102873.25;5062859;28;20052;-73
2021/04/24 08:40:23;;;;;;;17.02;5.72;;;;;;;12.35;48.68;102874.91;5036885;28;20083;-73
2021/04/24 08:42:50;;;;;;;15.25;5.88;;;;;;;12.47;47.03;102863.56;5057173;28;20052;-73
2021/04/24 08:45:18;;;;;;;11.73;4.78;;;;;;;12.76;46.69;102864.09;5056043;28;20052;-73
2021/04/24 08:47:52;;;;;;;11.57;4.28;;;;;;;12.98;45.87;102870.44;5060924;28;20044;-73
2021/04/24 08:50:23;;;;;;;13.50;3.97;;;;;;;13.16;44.40;102866.44;5068324;28;20051;-72
2021/04/24 08:52:49;;;;;;;7.97;3.85;;;;;;;13.17;43.06;102860.22;5056881;28;20118;-73
2021/04/24 08:55:19;;;;;;;10.18;4.25;;;;;;;13.29;42.89;102871.66;5057834;28;20064;-72
2021/04/24 08:57:47;;;;;;;10.38;4.43;;;;;;;13.39;43.88;102856.84;5052106;28;20048;-73
2021/04/24 09:00:15;;;;;;;12.52;4.50;;;;;;;13.44;43.57;102854.69;5058467;28;20076;-73
2021/04/24 09:02:43;;;;;;;9.90;4.60;;;;;;;13.44;42.89;102859.13;5052891;28;20612;-73
2021/04/24 09:05:12;;;;;;;12.25;5.10;;;;;;;13.56;43.07;102860.00;5065377;28;20052;-72
2021/04/24 09:07:38;;;;;;;12.27;5.43;;;;;;;13.69;43.13;102850.22;5059755;28;20980;-73
2021/04/24 09:10:05;;;;;;;11.23;4.90;;;;;;;13.83;43.22;102854.44;5054297;28;20053;-73
2021/04/24 09:12:38;;;;;;;12.57;4.40;;;;;;;13.95;42.67;102861.38;5056149;28;20126;-73
2021/04/24 09:15:15;;;;;;;13.63;4.82;;;;;;;14.11;42.20;102863.66;5055629;28;20045;-73
2021/04/24 09:18:02;;;;;;;15.18;5.78;;;;;;;14.18;40.16;102862.25;5056454;28;20059;-73
2021/04/24 09:20:51;;;;;;;10.90;5.43;;;;;;;14.24;40.14;102858.28;5051832;28;20113;-74
2021/04/24 09:23:19;;;;;;;11.63;5.22;;;;;;;14.34;40.81;102856.59;5039803;28;20063;-74
2021/04/24 09:26:07;;;;;;;11.05;4.60;;;;;;;14.39;40.83;102858.88;5050006;28;20064;-73
2021/04/24 09:28:41;;;;;;;12.18;3.92;;;;;;;14.42;40.05;102850.69;5067303;28;20111;-73
2021/04/24 09:31:24;;;;;;;9.40;4.55;;;;;;;14.44;40.23;102851.41;5063042;28;20079;-74
2021/04/24 09:33:55;;;;;;;10.75;4.35;;;;;;;14.59;40.18;102852.88;5068199;28;20115;-73
2021/04/24 09:36:32;;;;;;;12.85;4.88;;;;;;;14.68;40.11;102848.66;5052521;28;20788;-73
2021/04/24 09:39:00;;;;;;;11.15;4.97;;;;;;;14.87;40.33;102842.69;5054602;28;20056;-74
2021/04/24 09:41:30;;;;;;;10.27;5.40;;;;;;;15.02;40.10;102837.97;5066035;28;20150;-74
2021/04/24 09:44:13;;;;;;;10.32;5.03;;;;;;;15.21;39.47;102837.28;5056486;28;20059;-74
2021/04/24 09:46:45;;;;;;;7.80;3.58;;;;;;;15.36;37.96;102832.53;5070272;28;20144;-74
2021/04/24 09:49:41;;;;;;;8.52;3.30;;;;;;;15.49;37.50;102827.88;5052411;28;20055;-73
2021/04/24 09:52:09;;;;;;;9.55;3.30;;;;;;;15.53;36.35;102826.66;5034410;28;20534;-72
2021/04/24 09:54:47;;;;;;;4.85;3.03;;;;;;;15.79;36.00;102826.25;5056963;28;20076;-72
2021/04/24 09:57:21;;;;;;;8.23;3.20;;;;;;;15.94;36.18;102826.75;5068920;28;20056;-73
2021/04/24 09:59:56;;;;;;;8.38;3.28;;;;;;;16.03;35.03;102820.63;5056185;28;20878;-72
2021/04/24 10:02:31;;;;;;;13.23;3.85;;;;;;;16.11;35.02;102820.84;5056487;28;20056;-73
2021/04/24 10:05:07;;;;;;;18.65;4.28;;;;;;;16.21;33.83;102820.88;5054944;28;20056;-74
2021/04/24 10:07:44;;;;;;;9.07;3.30;;;;;;;16.45;34.82;102820.50;5054882;28;20056;-73
2021/04/24 10:10:38;;;;;;;9.57;3.60;;;;;;;16.37;34.00;102812.41;5044078;28;20060;-73
2021/04/24 10:13:09;;;;;;;8.77;4.20;;;;;;;16.55;34.50;102831.94;5044697;28;20060;-73
2021/04/24 10:15:44;;;;;;;7.03;3.58;;;;;;;16.63;32.71;102811.88;5059039;28;20148;-73
2021/04/24 10:18:12;;;;;;;9.80;3.15;;;;;;;16.75;32.34;102803.66;5052570;28;20138;-73
2021/04/24 10:20:41;;;;;;;5.88;3.25;;;;;;;16.91;32.74;102810.25;5056973;28;20060;-73
2021/04/24 10:23:09;;;;;;;6.88;3.35;;;;;;;16.97;33.29;102810.53;5053959;28;20098;-73
2021/04/24 10:25:36;;;;;;;5.72;3.10;;;;;;;17.04;32.50;102810.81;5060388;28;20177;-73
2021/04/24 10:28:04;;;;;;;8.85;4.03;;;;;;;16.98;32.79;102804.25;5054902;28;20063;-73
2021/04/24 10:30:30;;;;;;;6.38;3.67;;;;;;;17.04;33.42;102796.72;5042844;28;20040;-72
2021/04/24 10:32:57;;;;;;;10.15;4.50;;;;;;;17.20;33.81;102797.78;5041495;28;20710;-73
2021/04/24 10:35:26;;;;;;;8.45;4.13;;;;;;;17.25;32.88;102794.75;5033904;28;20076;-73
2021/04/24 10:37:54;;;;;;;9.75;3.47;;;;;;;17.35;31.84;102792.06;5043137;28;20847;-74
2021/04/24 10:40:21;;;;;;;6.37;3.13;;;;;;;17.48;31.80;102783.78;5056246;28;20048;-73
2021/04/24 10:42:52;;;;;;;9.10;4.40;;;;;;;17.61;31.55;102780.81;5057997;28;20289;-74
2021/04/24 10:45:29;;;;;;;9.35;3.65;;;;;;;17.68;31.22;102780.09;5054050;28;20480;-74
2021/04/24 10:47:56;;;;;;;6.55;3.95;;;;;;;17.73;32.13;102782.31;5055634;28;20542;-74
2021/04/24 10:50:47;;;;;;;9.48;5.05;;;;;;;17.78;32.20;102778.22;5059712;28;20051;-73
2021/04/24 10:53:25;;;;;;;12.93;4.22;;;;;;;17.90;30.99;102775.41;5028517;28;20048;-72
2021/04/24 10:55:54;;;;;;;9.23;3.58;;;;;;;18.04;31.43;102787.38;5060722;28;20044;-73
2021/04/24 10:58:22;;;;;;;7.15;3.85;;;;;;;18.06;31.30;102780.91;5036189;28;20114;-73
2021/04/24 11:01:06;;;;;;;;;;;;;;;18.20;31.65;102773.44;5055869;28;20056;-73
2021/04/24 11:03:42;;;;;;;7.15;3.72;;;;;;;18.08;31.15;102768.31;5051693;28;19924;-73
2021/04/24 11:06:13;;;;;;;9.50;3.83;;;;;;;17.82;29.80;102770.81;5061015;28;20368;-73
2021/04/24 11:08:41;;;;;;;9.38;3.78;;;;;;;17.70;29.96;102764.84;5055898;28;20053;-73
2021/04/24 11:11:09;;;;;;;9.38;3.88;;;;;;;17.63;30.10;102762.94;5057565;28;20106;-73
2021/04/24 11:13:37;;;;;;;11.30;4.60;;;;;;;17.58;31.29;102768.66;5051664;28;20054;-74
2021/04/24 11:16:05;;;;;;;8.85;4.43;;;;;;;17.49;32.11;102766.91;5053154;28;20142;-73
2021/04/24 11:18:33;;;;;;;17.33;5.70;;;;;;;17.37;33.20;102764.41;5059447;28;20182;-73
2021/04/24 11:21:11;;;;;;;12.13;5.25;;;;;;;17.23;32.00;102769.31;5054116;28;20429;-73
2021/04/24 11:23:41;;;;;;;10.57;4.60;;;;;;;17.08;32.50;102751.22;5056798;28;20126;-72
2021/04/24 11:26:15;;;;;;;10.13;4.00;;;;;;;17.13;32.73;102753.44;5053746;28;20301;-72